Terminal Aerodrome Forecast
Issued by NWS Blacksburg, VA

Home | Current Version | Previous Version | Text Only | Print | Product List | Glossary On
Versions: 1 2 3 4 5 6 7 8 9 10 11 12 13 14 15 16 17 18 19 20 21 22 23 24 25 26 27 28 29 30 31 32 33 34
000
FTUS41 KRNK 241730
TAFLYH
TAF
KLYH 241730Z 2418/2518 00000KT P6SM VCTS BKN035CB
      TEMPO 2419/2422 2SM TSRA BR OVC030CB
     FM250000 05004KT P6SM BKN040
     FM250800 00000KT 2SM BR SCT045
     FM251400 04005KT P6SM SCT060=

USA.gov is the U.S. government's official web portal to all federal, state and local government web resources and services.